sensor_id;sensor_type;location;lat;lon;timestamp;P1;durP1;ratioP1;P2;durP2;ratioP2
18610;SDS011;9435;52.122;5.502;2023-11-22T00:02:15;27.70;;;13.85;;
18610;SDS011;9435;52.122;5.502;2023-11-22T00:04:44;29.23;;;13.95;;
18610;SDS011;9435;52.122;5.502;2023-11-22T00:07:11;25.80;;;13.82;;
18610;SDS011;9435;52.122;5.502;2023-11-22T00:09:38;28.95;;;13.95;;
18610;SDS011;9435;52.122;5.502;2023-11-22T00:12:07;26.05;;;13.55;;
18610;SDS011;9435;52.122;5.502;2023-11-22T00:14:35;29.80;;;14.05;;
18610;SDS011;9435;52.122;5.502;2023-11-22T00:17:02;31.50;;;14.13;;
18610;SDS011;9435;52.122;5.502;2023-11-22T00:19:29;29.83;;;14.43;;
18610;SDS011;9435;52.122;5.502;2023-11-22T00:21:57;30.50;;;14.10;;
18610;SDS011;9435;52.122;5.502;2023-11-22T00:24:24;27.52;;;13.88;;
18610;SDS011;9435;52.122;5.502;2023-11-22T00:26:51;33.30;;;14.85;;
18610;SDS011;9435;52.122;5.502;2023-11-22T00:29:18;32.25;;;15.02;;
18610;SDS011;9435;52.122;5.502;2023-11-22T00:31:45;31.08;;;14.52;;
18610;SDS011;9435;52.122;5.502;2023-11-22T00:34:12;31.13;;;14.80;;
18610;SDS011;9435;52.122;5.502;2023-11-22T00:36:39;29.05;;;14.38;;
18610;SDS011;9435;52.122;5.502;2023-11-22T00:39:07;34.90;;;16.25;;
18610;SDS011;9435;52.122;5.502;2023-11-22T00:41:38;34.70;;;15.77;;
18610;SDS011;9435;52.122;5.502;2023-11-22T00:44:05;29.70;;;15.00;;
18610;SDS011;9435;52.122;5.502;2023-11-22T00:46:32;32.45;;;14.82;;
18610;SDS011;9435;52.122;5.502;2023-11-22T00:48:59;28.58;;;14.23;;
18610;SDS011;9435;52.122;5.502;2023-11-22T00:51:26;30.58;;;14.25;;
18610;SDS011;9435;52.122;5.502;2023-11-22T00:53:55;30.88;;;15.10;;
18610;SDS011;9435;52.122;5.502;2023-11-22T00:56:23;33.55;;;15.43;;
18610;SDS011;9435;52.122;5.502;2023-11-22T00:58:50;29.17;;;15.05;;
18610;SDS011;9435;52.122;5.502;2023-11-22T01:01:18;29.20;;;14.32;;
18610;SDS011;9435;52.122;5.502;2023-11-22T01:03:45;29.08;;;14.02;;
18610;SDS011;9435;52.122;5.502;2023-11-22T01:06:12;33.03;;;15.02;;
18610;SDS011;9435;52.122;5.502;2023-11-22T01:08:40;29.58;;;14.25;;
18610;SDS011;9435;52.122;5.502;2023-11-22T01:11:07;28.60;;;14.10;;
18610;SDS011;9435;52.122;5.502;2023-11-22T01:13:35;26.65;;;13.35;;
18610;SDS011;9435;52.122;5.502;2023-11-22T01:16:06;28.38;;;14.07;;
18610;SDS011;9435;52.122;5.502;2023-11-22T01:18:33;28.27;;;13.63;;
18610;SDS011;9435;52.122;5.502;2023-11-22T01:21:00;27.48;;;13.32;;
18610;SDS011;9435;52.122;5.502;2023-11-22T01:23:29;28.63;;;13.85;;
18610;SDS011;9435;52.122;5.502;2023-11-22T01:25:56;31.10;;;13.57;;
18610;SDS011;9435;52.122;5.502;2023-11-22T01:28:25;29.15;;;13.20;;
18610;SDS011;9435;52.122;5.502;2023-11-22T01:30:54;26.10;;;13.10;;
18610;SDS011;9435;52.122;5.502;2023-11-22T01:33:21;28.75;;;13.98;;
18610;SDS011;9435;52.122;5.502;2023-11-22T01:35:48;26.83;;;12.50;;
18610;SDS011;9435;52.122;5.502;2023-11-22T01:38:16;27.58;;;13.20;;
18610;SDS011;9435;52.122;5.502;2023-11-22T01:40:43;26.77;;;13.30;;
18610;SDS011;9435;52.122;5.502;2023-11-22T01:43:12;28.88;;;13.38;;
18610;SDS011;9435;52.122;5.502;2023-11-22T01:45:40;25.88;;;12.90;;
18610;SDS011;9435;52.122;5.502;2023-11-22T01:48:09;22.90;;;11.95;;
18610;SDS011;9435;52.122;5.502;2023-11-22T01:50:37;25.75;;;13.05;;
18610;SDS011;9435;52.122;5.502;2023-11-22T01:53:05;25.23;;;12.75;;
18610;SDS011;9435;52.122;5.502;2023-11-22T01:55:32;25.90;;;12.40;;
18610;SDS011;9435;52.122;5.502;2023-11-22T01:58:00;25.80;;;12.25;;
18610;SDS011;9435;52.122;5.502;2023-11-22T02:00:29;25.45;;;12.65;;
18610;SDS011;9435;52.122;5.502;2023-11-22T02:02:58;25.35;;;13.00;;
18610;SDS011;9435;52.122;5.502;2023-11-22T02:05:27;23.25;;;11.40;;
18610;SDS011;9435;52.122;5.502;2023-11-22T02:07:54;23.67;;;11.90;;
18610;SDS011;9435;52.122;5.502;2023-11-22T02:10:21;24.58;;;11.10;;
18610;SDS011;9435;52.122;5.502;2023-11-22T02:12:49;21.95;;;10.57;;
18610;SDS011;9435;52.122;5.502;2023-11-22T02:15:16;17.35;;;9.05;;
18610;SDS011;9435;52.122;5.502;2023-11-22T02:17:43;18.88;;;9.40;;
18610;SDS011;9435;52.122;5.502;2023-11-22T02:20:10;21.60;;;10.43;;
18610;SDS011;9435;52.122;5.502;2023-11-22T02:22:46;19.75;;;9.65;;
18610;SDS011;9435;52.122;5.502;2023-11-22T02:25:15;22.80;;;11.38;;
18610;SDS011;9435;52.122;5.502;2023-11-22T02:27:42;24.80;;;11.52;;
18610;SDS011;9435;52.122;5.502;2023-11-22T02:30:09;24.58;;;11.80;;
18610;SDS011;9435;52.122;5.502;2023-11-22T02:32:37;24.70;;;11.57;;
18610;SDS011;9435;52.122;5.502;2023-11-22T02:35:05;22.10;;;10.93;;
18610;SDS011;9435;52.122;5.502;2023-11-22T02:37:33;23.52;;;12.00;;
18610;SDS011;9435;52.122;5.502;2023-11-22T02:40:02;24.10;;;11.68;;
18610;SDS011;9435;52.122;5.502;2023-11-22T02:42:34;23.25;;;11.80;;
18610;SDS011;9435;52.122;5.502;2023-11-22T02:45:01;23.90;;;12.05;;
18610;SDS011;9435;52.122;5.502;2023-11-22T02:47:30;26.08;;;12.27;;
18610;SDS011;9435;52.122;5.502;2023-11-22T02:49:59;26.55;;;12.85;;
18610;SDS011;9435;52.122;5.502;2023-11-22T02:52:27;27.85;;;13.13;;
18610;SDS011;9435;52.122;5.502;2023-11-22T02:54:54;26.58;;;12.52;;
18610;SDS011;9435;52.122;5.502;2023-11-22T02:57:21;25.15;;;12.85;;
18610;SDS011;9435;52.122;5.502;2023-11-22T02:59:49;27.65;;;12.38;;
18610;SDS011;9435;52.122;5.502;2023-11-22T03:02:17;23.27;;;11.30;;
18610;SDS011;9435;52.122;5.502;2023-11-22T03:04:44;22.33;;;10.88;;
18610;SDS011;9435;52.122;5.502;2023-11-22T03:07:11;22.65;;;10.98;;
18610;SDS011;9435;52.122;5.502;2023-11-22T03:09:38;23.73;;;11.20;;
18610;SDS011;9435;52.122;5.502;2023-11-22T03:12:06;18.55;;;9.35;;
18610;SDS011;9435;52.122;5.502;2023-11-22T03:14:34;16.90;;;8.90;;
18610;SDS011;9435;52.122;5.502;2023-11-22T03:17:03;27.10;;;11.68;;
18610;SDS011;9435;52.122;5.502;2023-11-22T03:19:30;22.38;;;10.45;;
18610;SDS011;9435;52.122;5.502;2023-11-22T03:21:59;18.75;;;9.60;;
18610;SDS011;9435;52.122;5.502;2023-11-22T03:24:28;21.38;;;10.02;;
18610;SDS011;9435;52.122;5.502;2023-11-22T03:26:55;21.08;;;10.20;;
18610;SDS011;9435;52.122;5.502;2023-11-22T03:29:24;19.40;;;9.43;;
18610;SDS011;9435;52.122;5.502;2023-11-22T03:31:51;18.33;;;9.50;;
18610;SDS011;9435;52.122;5.502;2023-11-22T03:34:20;19.50;;;9.10;;
18610;SDS011;9435;52.122;5.502;2023-11-22T03:36:47;20.08;;;9.65;;
18610;SDS011;9435;52.122;5.502;2023-11-22T03:39:14;19.60;;;9.88;;
18610;SDS011;9435;52.122;5.502;2023-11-22T03:41:41;23.27;;;10.40;;
18610;SDS011;9435;52.122;5.502;2023-11-22T03:44:09;21.33;;;10.65;;
18610;SDS011;9435;52.122;5.502;2023-11-22T03:46:36;25.55;;;10.85;;
18610;SDS011;9435;52.122;5.502;2023-11-22T03:49:03;23.27;;;10.55;;
18610;SDS011;9435;52.122;5.502;2023-11-22T03:51:33;22.45;;;10.27;;
18610;SDS011;9435;52.122;5.502;2023-11-22T03:54:00;25.00;;;11.45;;
18610;SDS011;9435;52.122;5.502;2023-11-22T03:56:28;21.25;;;10.27;;
18610;SDS011;9435;52.122;5.502;2023-11-22T03:58:55;22.58;;;10.52;;
18610;SDS011;9435;52.122;5.502;2023-11-22T04:01:22;20.75;;;10.15;;
18610;SDS011;9435;52.122;5.502;2023-11-22T04:03:50;21.48;;;10.13;;
18610;SDS011;9435;52.122;5.502;2023-11-22T04:06:17;18.98;;;9.23;;
18610;SDS011;9435;52.122;5.502;2023-11-22T04:08:47;21.85;;;9.77;;
18610;SDS011;9435;52.122;5.502;2023-11-22T04:11:14;22.88;;;10.57;;
18610;SDS011;9435;52.122;5.502;2023-11-22T04:13:43;22.42;;;10.43;;
18610;SDS011;9435;52.122;5.502;2023-11-22T04:16:10;23.50;;;10.88;;
18610;SDS011;9435;52.122;5.502;2023-11-22T04:18:38;21.45;;;9.80;;
18610;SDS011;9435;52.122;5.502;2023-11-22T04:21:06;20.83;;;10.35;;
18610;SDS011;9435;52.122;5.502;2023-11-22T04:23:33;22.33;;;10.10;;
18610;SDS011;9435;52.122;5.502;2023-11-22T04:26:03;20.67;;;9.63;;
18610;SDS011;9435;52.122;5.502;2023-11-22T04:28:33;21.55;;;9.98;;
18610;SDS011;9435;52.122;5.502;2023-11-22T04:31:00;22.23;;;9.98;;
18610;SDS011;9435;52.122;5.502;2023-11-22T04:33:29;19.30;;;9.38;;
18610;SDS011;9435;52.122;5.502;2023-11-22T04:35:56;22.77;;;9.80;;
18610;SDS011;9435;52.122;5.502;2023-11-22T04:38:23;20.40;;;10.13;;
18610;SDS011;9435;52.122;5.502;2023-11-22T04:40:50;22.05;;;10.02;;
18610;SDS011;9435;52.122;5.502;2023-11-22T04:43:18;19.48;;;9.85;;
18610;SDS011;9435;52.122;5.502;2023-11-22T04:45:46;22.33;;;9.73;;
18610;SDS011;9435;52.122;5.502;2023-11-22T04:48:13;19.50;;;9.15;;
18610;SDS011;9435;52.122;5.502;2023-11-22T04:50:40;18.20;;;9.05;;
18610;SDS011;9435;52.122;5.502;2023-11-22T04:53:08;18.85;;;9.23;;
18610;SDS011;9435;52.122;5.502;2023-11-22T04:55:36;20.05;;;8.88;;
18610;SDS011;9435;52.122;5.502;2023-11-22T04:58:03;17.88;;;8.50;;
18610;SDS011;9435;52.122;5.502;2023-11-22T05:00:32;21.63;;;9.18;;
18610;SDS011;9435;52.122;5.502;2023-11-22T05:02:59;22.77;;;10.38;;
18610;SDS011;9435;52.122;5.502;2023-11-22T05:05:26;22.42;;;9.98;;
18610;SDS011;9435;52.122;5.502;2023-11-22T05:07:53;22.60;;;10.98;;
18610;SDS011;9435;52.122;5.502;2023-11-22T05:10:19;21.63;;;10.02;;
18610;SDS011;9435;52.122;5.502;2023-11-22T05:12:47;21.25;;;10.05;;
18610;SDS011;9435;52.122;5.502;2023-11-22T05:15:14;21.80;;;10.45;;
18610;SDS011;9435;52.122;5.502;2023-11-22T05:17:42;24.55;;;10.82;;
18610;SDS011;9435;52.122;5.502;2023-11-22T05:20:09;21.90;;;10.25;;
18610;SDS011;9435;52.122;5.502;2023-11-22T05:22:37;24.63;;;10.93;;
18610;SDS011;9435;52.122;5.502;2023-11-22T05:25:04;23.40;;;10.60;;
18610;SDS011;9435;52.122;5.502;2023-11-22T05:27:34;26.20;;;11.50;;
18610;SDS011;9435;52.122;5.502;2023-11-22T05:30:02;22.17;;;10.10;;
18610;SDS011;9435;52.122;5.502;2023-11-22T05:32:30;17.88;;;8.50;;
18610;SDS011;9435;52.122;5.502;2023-11-22T05:35:00;19.48;;;8.82;;
18610;SDS011;9435;52.122;5.502;2023-11-22T05:37:27;25.65;;;11.93;;
18610;SDS011;9435;52.122;5.502;2023-11-22T05:39:55;25.35;;;11.30;;
18610;SDS011;9435;52.122;5.502;2023-11-22T05:42:22;28.67;;;12.57;;
18610;SDS011;9435;52.122;5.502;2023-11-22T05:44:50;32.78;;;13.85;;
18610;SDS011;9435;52.122;5.502;2023-11-22T05:47:17;32.75;;;14.10;;
18610;SDS011;9435;52.122;5.502;2023-11-22T05:49:44;30.02;;;13.43;;
18610;SDS011;9435;52.122;5.502;2023-11-22T05:52:13;34.10;;;14.02;;
18610;SDS011;9435;52.122;5.502;2023-11-22T05:54:40;31.52;;;13.43;;
18610;SDS011;9435;52.122;5.502;2023-11-22T05:57:07;29.55;;;13.07;;
18610;SDS011;9435;52.122;5.502;2023-11-22T05:59:36;32.85;;;14.18;;
18610;SDS011;9435;52.122;5.502;2023-11-22T06:02:03;30.90;;;13.75;;
18610;SDS011;9435;52.122;5.502;2023-11-22T06:04:30;29.55;;;12.90;;
18610;SDS011;9435;52.122;5.502;2023-11-22T06:06:57;29.92;;;12.82;;
18610;SDS011;9435;52.122;5.502;2023-11-22T06:09:25;71.57;;;39.28;;
18610;SDS011;9435;52.122;5.502;2023-11-22T06:11:52;127.85;;;81.47;;
18610;SDS011;9435;52.122;5.502;2023-11-22T06:14:20;130.50;;;62.00;;
18610;SDS011;9435;52.122;5.502;2023-11-22T06:16:47;116.30;;;50.10;;
18610;SDS011;9435;52.122;5.502;2023-11-22T06:19:14;126.03;;;53.78;;
18610;SDS011;9435;52.122;5.502;2023-11-22T06:21:41;57.15;;;23.98;;
18610;SDS011;9435;52.122;5.502;2023-11-22T06:24:08;42.20;;;17.33;;
18610;SDS011;9435;52.122;5.502;2023-11-22T06:26:42;32.58;;;14.35;;
18610;SDS011;9435;52.122;5.502;2023-11-22T06:29:11;34.47;;;14.38;;
18610;SDS011;9435;52.122;5.502;2023-11-22T06:31:38;34.10;;;14.00;;
18610;SDS011;9435;52.122;5.502;2023-11-22T06:34:05;29.70;;;13.23;;
18610;SDS011;9435;52.122;5.502;2023-11-22T06:36:32;36.25;;;14.85;;
18610;SDS011;9435;52.122;5.502;2023-11-22T06:38:59;32.63;;;13.68;;
18610;SDS011;9435;52.122;5.502;2023-11-22T06:41:27;31.85;;;13.30;;
18610;SDS011;9435;52.122;5.502;2023-11-22T06:43:58;32.25;;;13.52;;
18610;SDS011;9435;52.122;5.502;2023-11-22T06:46:25;28.35;;;12.27;;
18610;SDS011;9435;52.122;5.502;2023-11-22T06:48:53;30.35;;;12.80;;
18610;SDS011;9435;52.122;5.502;2023-11-22T06:51:21;31.35;;;13.65;;
18610;SDS011;9435;52.122;5.502;2023-11-22T06:53:49;34.65;;;14.50;;
18610;SDS011;9435;52.122;5.502;2023-11-22T06:56:17;33.05;;;13.60;;
18610;SDS011;9435;52.122;5.502;2023-11-22T06:58:44;36.03;;;14.23;;
18610;SDS011;9435;52.122;5.502;2023-11-22T07:01:12;32.92;;;14.50;;
18610;SDS011;9435;52.122;5.502;2023-11-22T07:03:40;34.90;;;13.98;;
18610;SDS011;9435;52.122;5.502;2023-11-22T07:06:07;32.15;;;13.70;;
18610;SDS011;9435;52.122;5.502;2023-11-22T07:08:35;31.70;;;13.90;;
18610;SDS011;9435;52.122;5.502;2023-11-22T07:11:02;38.78;;;15.50;;
18610;SDS011;9435;52.122;5.502;2023-11-22T07:13:31;39.97;;;15.82;;
18610;SDS011;9435;52.122;5.502;2023-11-22T07:15:58;34.95;;;14.63;;
18610;SDS011;9435;52.122;5.502;2023-11-22T07:18:27;36.05;;;15.02;;
18610;SDS011;9435;52.122;5.502;2023-11-22T07:20:54;33.92;;;15.32;;
18610;SDS011;9435;52.122;5.502;2023-11-22T07:23:21;35.83;;;15.23;;
18610;SDS011;9435;52.122;5.502;2023-11-22T07:25:52;34.05;;;14.57;;
18610;SDS011;9435;52.122;5.502;2023-11-22T07:28:19;33.22;;;14.75;;
18610;SDS011;9435;52.122;5.502;2023-11-22T07:30:47;38.08;;;15.90;;
18610;SDS011;9435;52.122;5.502;2023-11-22T07:33:14;38.03;;;15.25;;
18610;SDS011;9435;52.122;5.502;2023-11-22T07:35:43;35.05;;;15.32;;
18610;SDS011;9435;52.122;5.502;2023-11-22T07:38:11;35.85;;;14.60;;
18610;SDS011;9435;52.122;5.502;2023-11-22T07:40:39;33.30;;;14.88;;
18610;SDS011;9435;52.122;5.502;2023-11-22T07:43:07;38.30;;;15.95;;
18610;SDS011;9435;52.122;5.502;2023-11-22T07:45:34;42.15;;;17.08;;
18610;SDS011;9435;52.122;5.502;2023-11-22T07:48:02;44.60;;;17.90;;
18610;SDS011;9435;52.122;5.502;2023-11-22T07:50:30;39.65;;;16.73;;
18610;SDS011;9435;52.122;5.502;2023-11-22T07:52:58;42.05;;;17.42;;
18610;SDS011;9435;52.122;5.502;2023-11-22T07:55:28;41.63;;;18.80;;
18610;SDS011;9435;52.122;5.502;2023-11-22T07:57:55;45.42;;;18.80;;
18610;SDS011;9435;52.122;5.502;2023-11-22T08:00:22;38.90;;;17.98;;
18610;SDS011;9435;52.122;5.502;2023-11-22T08:02:49;41.42;;;17.45;;
18610;SDS011;9435;52.122;5.502;2023-11-22T08:05:19;38.20;;;16.65;;
18610;SDS011;9435;52.122;5.502;2023-11-22T08:07:48;41.25;;;18.35;;
18610;SDS011;9435;52.122;5.502;2023-11-22T08:10:17;40.42;;;18.08;;
18610;SDS011;9435;52.122;5.502;2023-11-22T08:12:45;43.72;;;18.42;;
18610;SDS011;9435;52.122;5.502;2023-11-22T08:15:15;39.08;;;16.52;;
18610;SDS011;9435;52.122;5.502;2023-11-22T08:17:43;39.85;;;17.35;;
18610;SDS011;9435;52.122;5.502;2023-11-22T08:20:10;41.30;;;17.73;;
18610;SDS011;9435;52.122;5.502;2023-11-22T08:22:38;40.10;;;17.27;;
18610;SDS011;9435;52.122;5.502;2023-11-22T08:25:06;40.92;;;16.75;;
18610;SDS011;9435;52.122;5.502;2023-11-22T08:27:39;38.28;;;16.20;;
18610;SDS011;9435;52.122;5.502;2023-11-22T08:30:07;41.72;;;16.83;;
18610;SDS011;9435;52.122;5.502;2023-11-22T08:32:38;43.17;;;17.00;;
18610;SDS011;9435;52.122;5.502;2023-11-22T08:35:07;40.67;;;16.90;;
18610;SDS011;9435;52.122;5.502;2023-11-22T08:37:35;39.70;;;16.63;;
18610;SDS011;9435;52.122;5.502;2023-11-22T08:40:04;39.55;;;17.05;;
18610;SDS011;9435;52.122;5.502;2023-11-22T08:42:33;40.17;;;16.98;;
18610;SDS011;9435;52.122;5.502;2023-11-22T08:45:02;40.17;;;16.45;;
18610;SDS011;9435;52.122;5.502;2023-11-22T08:47:30;39.53;;;16.52;;
18610;SDS011;9435;52.122;5.502;2023-11-22T08:49:57;41.40;;;16.70;;
18610;SDS011;9435;52.122;5.502;2023-11-22T08:52:24;41.80;;;16.83;;
18610;SDS011;9435;52.122;5.502;2023-11-22T08:54:51;37.90;;;16.85;;
18610;SDS011;9435;52.122;5.502;2023-11-22T08:57:18;40.50;;;16.70;;
18610;SDS011;9435;52.122;5.502;2023-11-22T08:59:46;42.58;;;17.80;;
18610;SDS011;9435;52.122;5.502;2023-11-22T09:02:14;42.58;;;17.45;;
18610;SDS011;9435;52.122;5.502;2023-11-22T09:04:42;41.10;;;18.00;;
18610;SDS011;9435;52.122;5.502;2023-11-22T09:07:09;43.63;;;18.48;;
18610;SDS011;9435;52.122;5.502;2023-11-22T09:09:39;41.97;;;18.15;;
18610;SDS011;9435;52.122;5.502;2023-11-22T09:12:08;43.55;;;17.85;;
18610;SDS011;9435;52.122;5.502;2023-11-22T09:14:38;48.13;;;19.23;;
18610;SDS011;9435;52.122;5.502;2023-11-22T09:17:07;44.65;;;18.52;;
18610;SDS011;9435;52.122;5.502;2023-11-22T09:19:36;44.22;;;18.35;;
18610;SDS011;9435;52.122;5.502;2023-11-22T09:22:03;45.50;;;19.00;;
18610;SDS011;9435;52.122;5.502;2023-11-22T09:24:32;48.47;;;18.70;;
18610;SDS011;9435;52.122;5.502;2023-11-22T09:27:02;46.20;;;19.80;;
18610;SDS011;9435;52.122;5.502;2023-11-22T09:29:30;50.15;;;19.52;;
18610;SDS011;9435;52.122;5.502;2023-11-22T09:31:59;45.55;;;19.27;;
18610;SDS011;9435;52.122;5.502;2023-11-22T09:34:27;45.00;;;19.27;;
18610;SDS011;9435;52.122;5.502;2023-11-22T09:36:56;48.00;;;19.25;;
18610;SDS011;9435;52.122;5.502;2023-11-22T09:39:24;48.47;;;20.75;;
18610;SDS011;9435;52.122;5.502;2023-11-22T09:41:51;53.80;;;21.88;;
18610;SDS011;9435;52.122;5.502;2023-11-22T09:44:19;49.47;;;20.10;;
18610;SDS011;9435;52.122;5.502;2023-11-22T09:46:48;47.30;;;21.02;;
18610;SDS011;9435;52.122;5.502;2023-11-22T09:49:19;48.13;;;21.25;;
18610;SDS011;9435;52.122;5.502;2023-11-22T09:51:50;54.60;;;22.08;;
18610;SDS011;9435;52.122;5.502;2023-11-22T09:54:22;54.80;;;21.33;;
18610;SDS011;9435;52.122;5.502;2023-11-22T09:56:55;44.67;;;19.90;;
18610;SDS011;9435;52.122;5.502;2023-11-22T09:59:27;57.47;;;22.33;;
18610;SDS011;9435;52.122;5.502;2023-11-22T10:01:55;49.95;;;20.92;;
18610;SDS011;9435;52.122;5.502;2023-11-22T10:04:24;49.10;;;20.63;;
18610;SDS011;9435;52.122;5.502;2023-11-22T10:06:54;52.05;;;21.60;;
18610;SDS011;9435;52.122;5.502;2023-11-22T10:09:25;49.30;;;21.30;;
18610;SDS011;9435;52.122;5.502;2023-11-22T10:11:57;46.60;;;19.77;;
18610;SDS011;9435;52.122;5.502;2023-11-22T10:14:24;51.85;;;21.40;;
18610;SDS011;9435;52.122;5.502;2023-11-22T10:16:58;50.10;;;21.20;;
18610;SDS011;9435;52.122;5.502;2023-11-22T10:19:26;49.40;;;21.35;;
18610;SDS011;9435;52.122;5.502;2023-11-22T10:22:03;47.92;;;20.98;;
18610;SDS011;9435;52.122;5.502;2023-11-22T10:24:33;48.00;;;20.65;;
18610;SDS011;9435;52.122;5.502;2023-11-22T10:27:00;45.60;;;20.48;;
18610;SDS011;9435;52.122;5.502;2023-11-22T10:29:28;49.13;;;20.05;;
18610;SDS011;9435;52.122;5.502;2023-11-22T10:31:55;45.63;;;20.40;;
18610;SDS011;9435;52.122;5.502;2023-11-22T10:34:23;43.75;;;19.67;;
18610;SDS011;9435;52.122;5.502;2023-11-22T10:36:51;45.58;;;19.58;;
18610;SDS011;9435;52.122;5.502;2023-11-22T10:39:19;46.00;;;19.55;;
18610;SDS011;9435;52.122;5.502;2023-11-22T10:41:49;43.85;;;20.02;;
18610;SDS011;9435;52.122;5.502;2023-11-22T10:44:18;46.67;;;19.98;;
18610;SDS011;9435;52.122;5.502;2023-11-22T10:46:47;41.00;;;17.95;;
18610;SDS011;9435;52.122;5.502;2023-11-22T10:49:17;42.28;;;18.15;;
18610;SDS011;9435;52.122;5.502;2023-11-22T10:51:44;40.15;;;18.25;;
18610;SDS011;9435;52.122;5.502;2023-11-22T10:54:18;42.75;;;18.52;;
18610;SDS011;9435;52.122;5.502;2023-11-22T10:56:46;41.70;;;17.67;;
18610;SDS011;9435;52.122;5.502;2023-11-22T10:59:19;38.17;;;17.20;;
18610;SDS011;9435;52.122;5.502;2023-11-22T11:01:49;36.33;;;16.98;;
18610;SDS011;9435;52.122;5.502;2023-11-22T11:04:19;35.83;;;16.65;;
18610;SDS011;9435;52.122;5.502;2023-11-22T11:06:51;32.40;;;16.20;;
18610;SDS011;9435;52.122;5.502;2023-11-22T11:09:22;34.00;;;15.90;;
18610;SDS011;9435;52.122;5.502;2023-11-22T11:11:53;36.58;;;15.70;;
18610;SDS011;9435;52.122;5.502;2023-11-22T11:14:22;32.92;;;15.25;;
18610;SDS011;9435;52.122;5.502;2023-11-22T11:16:50;28.60;;;14.65;;
18610;SDS011;9435;52.122;5.502;2023-11-22T11:19:19;31.90;;;15.65;;
18610;SDS011;9435;52.122;5.502;2023-11-22T11:21:47;32.17;;;14.35;;
18610;SDS011;9435;52.122;5.502;2023-11-22T11:24:14;28.90;;;14.27;;
18610;SDS011;9435;52.122;5.502;2023-11-22T11:26:45;28.65;;;14.32;;
18610;SDS011;9435;52.122;5.502;2023-11-22T11:29:30;27.38;;;14.00;;
18610;SDS011;9435;52.122;5.502;2023-11-22T11:31:58;26.95;;;13.05;;
18610;SDS011;9435;52.122;5.502;2023-11-22T11:34:26;25.65;;;12.82;;
18610;SDS011;9435;52.122;5.502;2023-11-22T11:36:54;26.00;;;12.63;;
18610;SDS011;9435;52.122;5.502;2023-11-22T11:39:24;26.08;;;11.93;;
18610;SDS011;9435;52.122;5.502;2023-11-22T11:42:07;26.20;;;12.13;;
18610;SDS011;9435;52.122;5.502;2023-11-22T11:44:36;22.45;;;11.93;;
18610;SDS011;9435;52.122;5.502;2023-11-22T11:47:10;22.30;;;12.00;;
18610;SDS011;9435;52.122;5.502;2023-11-22T11:49:38;24.42;;;12.25;;
18610;SDS011;9435;52.122;5.502;2023-11-22T11:52:05;24.48;;;11.90;;
18610;SDS011;9435;52.122;5.502;2023-11-22T11:54:33;25.52;;;12.30;;
18610;SDS011;9435;52.122;5.502;2023-11-22T11:57:00;25.88;;;12.30;;
18610;SDS011;9435;52.122;5.502;2023-11-22T11:59:27;27.30;;;12.40;;
18610;SDS011;9435;52.122;5.502;2023-11-22T12:01:59;25.83;;;12.02;;
18610;SDS011;9435;52.122;5.502;2023-11-22T12:04:26;25.75;;;12.50;;
18610;SDS011;9435;52.122;5.502;2023-11-22T12:06:53;29.08;;;13.05;;
18610;SDS011;9435;52.122;5.502;2023-11-22T12:09:23;28.30;;;13.10;;
18610;SDS011;9435;52.122;5.502;2023-11-22T12:11:51;24.45;;;12.68;;
18610;SDS011;9435;52.122;5.502;2023-11-22T12:14:19;27.63;;;13.15;;
18610;SDS011;9435;52.122;5.502;2023-11-22T12:16:46;26.58;;;12.35;;
18610;SDS011;9435;52.122;5.502;2023-11-22T12:19:22;25.10;;;13.00;;
18610;SDS011;9435;52.122;5.502;2023-11-22T12:21:50;27.08;;;13.70;;
18610;SDS011;9435;52.122;5.502;2023-11-22T12:24:17;29.08;;;14.15;;
18610;SDS011;9435;52.122;5.502;2023-11-22T12:26:45;29.80;;;14.52;;
18610;SDS011;9435;52.122;5.502;2023-11-22T12:29:15;29.33;;;14.30;;
18610;SDS011;9435;52.122;5.502;2023-11-22T12:31:44;32.47;;;15.57;;
18610;SDS011;9435;52.122;5.502;2023-11-22T12:34:13;30.88;;;15.65;;
18610;SDS011;9435;52.122;5.502;2023-11-22T12:36:43;33.92;;;16.10;;
18610;SDS011;9435;52.122;5.502;2023-11-22T12:39:12;34.92;;;16.73;;
18610;SDS011;9435;52.122;5.502;2023-11-22T12:41:42;34.47;;;16.65;;
18610;SDS011;9435;52.122;5.502;2023-11-22T12:44:11;32.83;;;16.75;;
18610;SDS011;9435;52.122;5.502;2023-11-22T12:46:45;35.63;;;17.10;;
18610;SDS011;9435;52.122;5.502;2023-11-22T12:49:14;39.17;;;17.70;;
18610;SDS011;9435;52.122;5.502;2023-11-22T12:51:47;36.47;;;17.73;;
18610;SDS011;9435;52.122;5.502;2023-11-22T12:54:14;34.85;;;17.33;;
18610;SDS011;9435;52.122;5.502;2023-11-22T12:56:45;38.65;;;18.45;;
18610;SDS011;9435;52.122;5.502;2023-11-22T12:59:14;40.65;;;18.02;;
18610;SDS011;9435;52.122;5.502;2023-11-22T13:01:41;39.70;;;18.67;;
18610;SDS011;9435;52.122;5.502;2023-11-22T13:04:08;41.83;;;18.40;;
18610;SDS011;9435;52.122;5.502;2023-11-22T13:06:36;39.10;;;17.80;;
18610;SDS011;9435;52.122;5.502;2023-11-22T13:09:05;42.30;;;18.83;;
18610;SDS011;9435;52.122;5.502;2023-11-22T13:11:32;42.97;;;19.05;;
18610;SDS011;9435;52.122;5.502;2023-11-22T13:13:59;41.90;;;18.80;;
18610;SDS011;9435;52.122;5.502;2023-11-22T13:16:26;41.50;;;19.25;;
18610;SDS011;9435;52.122;5.502;2023-11-22T13:18:54;40.95;;;18.90;;
18610;SDS011;9435;52.122;5.502;2023-11-22T13:21:21;40.17;;;19.55;;
18610;SDS011;9435;52.122;5.502;2023-11-22T13:23:48;38.97;;;18.70;;
18610;SDS011;9435;52.122;5.502;2023-11-22T13:26:16;38.53;;;18.35;;
18610;SDS011;9435;52.122;5.502;2023-11-22T13:28:43;38.47;;;18.23;;
18610;SDS011;9435;52.122;5.502;2023-11-22T13:31:10;37.58;;;17.65;;
18610;SDS011;9435;52.122;5.502;2023-11-22T13:33:38;35.45;;;16.50;;
18610;SDS011;9435;52.122;5.502;2023-11-22T13:36:08;33.22;;;16.30;;
18610;SDS011;9435;52.122;5.502;2023-11-22T13:38:38;37.70;;;17.00;;
18610;SDS011;9435;52.122;5.502;2023-11-22T13:41:05;35.38;;;16.67;;
18610;SDS011;9435;52.122;5.502;2023-11-22T13:43:34;35.70;;;17.15;;
18610;SDS011;9435;52.122;5.502;2023-11-22T13:46:01;35.75;;;16.63;;
18610;SDS011;9435;52.122;5.502;2023-11-22T13:48:29;35.53;;;16.30;;
18610;SDS011;9435;52.122;5.502;2023-11-22T13:50:57;34.20;;;17.10;;
18610;SDS011;9435;52.122;5.502;2023-11-22T13:53:25;33.15;;;16.65;;
18610;SDS011;9435;52.122;5.502;2023-11-22T13:55:55;35.45;;;17.23;;
18610;SDS011;9435;52.122;5.502;2023-11-22T13:58:23;34.15;;;16.23;;
18610;SDS011;9435;52.122;5.502;2023-11-22T14:00:52;36.83;;;16.65;;
18610;SDS011;9435;52.122;5.502;2023-11-22T14:03:20;34.92;;;16.38;;
18610;SDS011;9435;52.122;5.502;2023-11-22T14:05:47;33.42;;;16.88;;
18610;SDS011;9435;52.122;5.502;2023-11-22T14:08:14;35.25;;;17.60;;
18610;SDS011;9435;52.122;5.502;2023-11-22T14:10:41;36.58;;;18.17;;
18610;SDS011;9435;52.122;5.502;2023-11-22T14:13:10;36.38;;;18.33;;
18610;SDS011;9435;52.122;5.502;2023-11-22T14:15:37;38.38;;;18.55;;
18610;SDS011;9435;52.122;5.502;2023-11-22T14:18:05;40.80;;;19.55;;
18610;SDS011;9435;52.122;5.502;2023-11-22T14:20:33;41.22;;;20.00;;
18610;SDS011;9435;52.122;5.502;2023-11-22T14:23:00;41.63;;;20.50;;
18610;SDS011;9435;52.122;5.502;2023-11-22T14:25:27;44.15;;;20.27;;
18610;SDS011;9435;52.122;5.502;2023-11-22T14:27:54;40.13;;;20.27;;
18610;SDS011;9435;52.122;5.502;2023-11-22T14:30:22;44.20;;;21.42;;
18610;SDS011;9435;52.122;5.502;2023-11-22T14:32:52;45.92;;;21.48;;
18610;SDS011;9435;52.122;5.502;2023-11-22T14:35:21;45.20;;;20.98;;
18610;SDS011;9435;52.122;5.502;2023-11-22T14:37:48;45.70;;;21.15;;
18610;SDS011;9435;52.122;5.502;2023-11-22T14:40:17;45.80;;;21.42;;
18610;SDS011;9435;52.122;5.502;2023-11-22T14:42:45;46.15;;;21.83;;